sensor_id;sensor_type;location;lat;lon;timestamp;P1;durP1;ratioP1;P2;durP2;ratioP2
38940;SDS011;43236;47.208;7.518;2023-02-28T00:00:53;7.53;;;4.30;;
38940;SDS011;43236;47.208;7.518;2023-02-28T00:03:40;6.72;;;3.42;;
38940;SDS011;43236;47.208;7.518;2023-02-28T00:06:27;8.82;;;3.75;;
38940;SDS011;43236;47.208;7.518;2023-02-28T00:09:16;7.20;;;3.97;;
38940;SDS011;43236;47.208;7.518;2023-02-28T00:12:03;6.45;;;3.88;;
38940;SDS011;43236;47.208;7.518;2023-02-28T00:14:55;10.60;;;4.70;;
38940;SDS011;43236;47.208;7.518;2023-02-28T00:17:42;9.70;;;3.90;;
38940;SDS011;43236;47.208;7.518;2023-02-28T00:20:30;8.05;;;3.88;;
38940;SDS011;43236;47.208;7.518;2023-02-28T00:23:17;10.20;;;4.55;;
38940;SDS011;43236;47.208;7.518;2023-02-28T00:26:05;10.05;;;4.25;;
38940;SDS011;43236;47.208;7.518;2023-02-28T00:28:52;8.77;;;4.55;;
38940;SDS011;43236;47.208;7.518;2023-02-28T00:31:39;8.52;;;4.32;;
38940;SDS011;43236;47.208;7.518;2023-02-28T00:34:26;10.38;;;4.25;;
38940;SDS011;43236;47.208;7.518;2023-02-28T00:37:13;7.43;;;4.10;;
38940;SDS011;43236;47.208;7.518;2023-02-28T00:40:00;7.97;;;4.07;;
38940;SDS011;43236;47.208;7.518;2023-02-28T00:42:51;11.02;;;5.03;;
38940;SDS011;43236;47.208;7.518;2023-02-28T00:45:38;10.88;;;4.32;;
38940;SDS011;43236;47.208;7.518;2023-02-28T00:48:25;10.40;;;4.72;;
38940;SDS011;43236;47.208;7.518;2023-02-28T00:51:12;15.98;;;4.93;;
38940;SDS011;43236;47.208;7.518;2023-02-28T00:53:59;10.90;;;4.38;;
38940;SDS011;43236;47.208;7.518;2023-02-28T00:56:46;10.07;;;4.95;;
38940;SDS011;43236;47.208;7.518;2023-02-28T00:59:35;10.63;;;4.95;;
38940;SDS011;43236;47.208;7.518;2023-02-28T01:02:22;7.07;;;3.85;;
38940;SDS011;43236;47.208;7.518;2023-02-28T01:05:09;11.07;;;5.35;;
38940;SDS011;43236;47.208;7.518;2023-02-28T01:07:56;10.27;;;4.78;;
38940;SDS011;43236;47.208;7.518;2023-02-28T01:10:43;7.68;;;4.15;;
38940;SDS011;43236;47.208;7.518;2023-02-28T01:13:30;12.07;;;4.63;;
38940;SDS011;43236;47.208;7.518;2023-02-28T01:16:19;10.55;;;4.63;;
38940;SDS011;43236;47.208;7.518;2023-02-28T01:19:06;11.32;;;5.07;;
38940;SDS011;43236;47.208;7.518;2023-02-28T01:21:53;7.22;;;4.55;;
38940;SDS011;43236;47.208;7.518;2023-02-28T01:24:40;8.52;;;4.47;;
38940;SDS011;43236;47.208;7.518;2023-02-28T01:27:27;10.52;;;4.85;;
38940;SDS011;43236;47.208;7.518;2023-02-28T01:30:15;9.07;;;4.95;;
38940;SDS011;43236;47.208;7.518;2023-02-28T01:33:03;10.48;;;5.15;;
38940;SDS011;43236;47.208;7.518;2023-02-28T01:35:57;8.73;;;5.05;;
38940;SDS011;43236;47.208;7.518;2023-02-28T01:38:44;10.13;;;4.90;;
38940;SDS011;43236;47.208;7.518;2023-02-28T01:41:32;10.00;;;4.78;;
38940;SDS011;43236;47.208;7.518;2023-02-28T01:47:46;6.82;;;4.30;;
38940;SDS011;43236;47.208;7.518;2023-02-28T01:50:38;10.55;;;4.70;;
38940;SDS011;43236;47.208;7.518;2023-02-28T01:53:29;9.02;;;4.55;;
38940;SDS011;43236;47.208;7.518;2023-02-28T01:56:22;9.50;;;4.70;;
38940;SDS011;43236;47.208;7.518;2023-02-28T01:59:13;9.30;;;5.15;;
38940;SDS011;43236;47.208;7.518;2023-02-28T02:02:07;9.45;;;5.30;;
38940;SDS011;43236;47.208;7.518;2023-02-28T02:04:55;11.50;;;5.20;;
38940;SDS011;43236;47.208;7.518;2023-02-28T02:07:48;13.30;;;5.40;;
38940;SDS011;43236;47.208;7.518;2023-02-28T02:10:39;12.13;;;5.80;;
38940;SDS011;43236;47.208;7.518;2023-02-28T02:13:42;9.32;;;4.72;;
38940;SDS011;43236;47.208;7.518;2023-02-28T02:16:44;8.15;;;4.68;;
38940;SDS011;43236;47.208;7.518;2023-02-28T02:19:45;12.80;;;5.95;;
38940;SDS011;43236;47.208;7.518;2023-02-28T02:23:01;11.02;;;5.07;;
38940;SDS011;43236;47.208;7.518;2023-02-28T02:26:07;10.20;;;4.95;;
38940;SDS011;43236;47.208;7.518;2023-02-28T02:29:19;10.05;;;5.15;;
38940;SDS011;43236;47.208;7.518;2023-02-28T02:32:34;8.88;;;5.00;;
38940;SDS011;43236;47.208;7.518;2023-02-28T02:35:43;12.50;;;5.38;;
38940;SDS011;43236;47.208;7.518;2023-02-28T02:38:36;10.27;;;5.18;;
38940;SDS011;43236;47.208;7.518;2023-02-28T02:41:33;13.05;;;5.70;;
38940;SDS011;43236;47.208;7.518;2023-02-28T02:44:26;13.07;;;5.22;;
38940;SDS011;43236;47.208;7.518;2023-02-28T02:47:17;12.02;;;5.32;;
38940;SDS011;43236;47.208;7.518;2023-02-28T02:50:07;11.00;;;5.28;;
38940;SDS011;43236;47.208;7.518;2023-02-28T02:53:00;10.88;;;5.47;;
38940;SDS011;43236;47.208;7.518;2023-02-28T02:55:50;8.60;;;5.18;;
38940;SDS011;43236;47.208;7.518;2023-02-28T02:58:40;10.32;;;5.55;;
38940;SDS011;43236;47.208;7.518;2023-02-28T03:01:29;10.15;;;5.30;;
38940;SDS011;43236;47.208;7.518;2023-02-28T03:04:19;10.60;;;5.55;;
38940;SDS011;43236;47.208;7.518;2023-02-28T03:07:09;10.93;;;4.97;;
38940;SDS011;43236;47.208;7.518;2023-02-28T03:09:58;10.90;;;5.20;;
38940;SDS011;43236;47.208;7.518;2023-02-28T03:12:48;10.02;;;5.25;;
38940;SDS011;43236;47.208;7.518;2023-02-28T03:15:45;10.18;;;5.80;;
38940;SDS011;43236;47.208;7.518;2023-02-28T03:18:46;10.32;;;5.47;;
38940;SDS011;43236;47.208;7.518;2023-02-28T03:21:41;10.65;;;5.72;;
38940;SDS011;43236;47.208;7.518;2023-02-28T03:24:37;10.75;;;5.43;;
38940;SDS011;43236;47.208;7.518;2023-02-28T03:27:33;10.52;;;5.35;;
38940;SDS011;43236;47.208;7.518;2023-02-28T03:30:28;12.30;;;4.97;;
38940;SDS011;43236;47.208;7.518;2023-02-28T03:33:21;11.30;;;5.72;;
38940;SDS011;43236;47.208;7.518;2023-02-28T03:36:13;11.98;;;6.50;;
38940;SDS011;43236;47.208;7.518;2023-02-28T03:39:06;11.32;;;5.95;;
38940;SDS011;43236;47.208;7.518;2023-02-28T03:41:58;9.98;;;5.60;;
38940;SDS011;43236;47.208;7.518;2023-02-28T03:44:50;10.35;;;5.78;;
38940;SDS011;43236;47.208;7.518;2023-02-28T03:47:41;10.52;;;6.03;;
38940;SDS011;43236;47.208;7.518;2023-02-28T03:50:35;10.85;;;5.90;;
38940;SDS011;43236;47.208;7.518;2023-02-28T03:53:26;10.27;;;6.10;;
38940;SDS011;43236;47.208;7.518;2023-02-28T03:56:16;11.02;;;6.10;;
38940;SDS011;43236;47.208;7.518;2023-02-28T03:59:06;10.63;;;5.78;;
38940;SDS011;43236;47.208;7.518;2023-02-28T04:01:59;10.02;;;5.45;;
38940;SDS011;43236;47.208;7.518;2023-02-28T04:04:48;9.48;;;5.53;;
38940;SDS011;43236;47.208;7.518;2023-02-28T04:07:36;11.10;;;6.15;;
38940;SDS011;43236;47.208;7.518;2023-02-28T04:10:23;11.52;;;5.97;;
38940;SDS011;43236;47.208;7.518;2023-02-28T04:13:10;13.02;;;5.55;;
38940;SDS011;43236;47.208;7.518;2023-02-28T04:15:57;11.57;;;5.90;;
38940;SDS011;43236;47.208;7.518;2023-02-28T04:18:46;13.50;;;6.43;;
38940;SDS011;43236;47.208;7.518;2023-02-28T04:21:34;17.05;;;6.68;;
38940;SDS011;43236;47.208;7.518;2023-02-28T04:24:22;12.45;;;6.30;;
38940;SDS011;43236;47.208;7.518;2023-02-28T04:27:11;9.45;;;5.82;;
38940;SDS011;43236;47.208;7.518;2023-02-28T04:29:58;12.90;;;6.18;;
38940;SDS011;43236;47.208;7.518;2023-02-28T04:32:45;11.13;;;6.22;;
38940;SDS011;43236;47.208;7.518;2023-02-28T04:35:34;10.23;;;5.90;;
38940;SDS011;43236;47.208;7.518;2023-02-28T04:38:21;12.57;;;6.07;;
38940;SDS011;43236;47.208;7.518;2023-02-28T04:41:08;11.52;;;5.80;;
38940;SDS011;43236;47.208;7.518;2023-02-28T04:43:55;12.98;;;6.78;;
38940;SDS011;43236;47.208;7.518;2023-02-28T04:46:43;11.07;;;6.55;;
38940;SDS011;43236;47.208;7.518;2023-02-28T04:49:30;12.50;;;5.68;;
38940;SDS011;43236;47.208;7.518;2023-02-28T04:52:18;11.50;;;6.22;;
38940;SDS011;43236;47.208;7.518;2023-02-28T04:55:06;12.90;;;6.00;;
38940;SDS011;43236;47.208;7.518;2023-02-28T04:57:53;18.20;;;6.88;;
38940;SDS011;43236;47.208;7.518;2023-02-28T05:00:40;11.50;;;6.18;;
38940;SDS011;43236;47.208;7.518;2023-02-28T05:03:27;11.05;;;6.22;;
38940;SDS011;43236;47.208;7.518;2023-02-28T05:06:15;11.27;;;6.13;;
38940;SDS011;43236;47.208;7.518;2023-02-28T05:09:04;11.90;;;6.10;;
38940;SDS011;43236;47.208;7.518;2023-02-28T05:11:51;10.52;;;6.30;;
38940;SDS011;43236;47.208;7.518;2023-02-28T05:14:38;12.25;;;6.30;;
38940;SDS011;43236;47.208;7.518;2023-02-28T05:17:25;12.80;;;6.88;;
38940;SDS011;43236;47.208;7.518;2023-02-28T05:20:12;10.73;;;6.10;;
38940;SDS011;43236;47.208;7.518;2023-02-28T05:23:00;12.52;;;6.18;;
38940;SDS011;43236;47.208;7.518;2023-02-28T05:25:50;10.75;;;6.35;;
38940;SDS011;43236;47.208;7.518;2023-02-28T05:28:37;13.55;;;6.45;;
38940;SDS011;43236;47.208;7.518;2023-02-28T05:31:24;11.38;;;5.88;;
38940;SDS011;43236;47.208;7.518;2023-02-28T05:34:11;12.82;;;6.22;;
38940;SDS011;43236;47.208;7.518;2023-02-28T05:37:00;11.55;;;6.22;;
38940;SDS011;43236;47.208;7.518;2023-02-28T05:39:47;11.60;;;6.80;;
38940;SDS011;43236;47.208;7.518;2023-02-28T05:42:36;12.02;;;6.82;;
38940;SDS011;43236;47.208;7.518;2023-02-28T05:45:23;12.93;;;6.72;;
38940;SDS011;43236;47.208;7.518;2023-02-28T05:48:13;11.40;;;5.72;;
38940;SDS011;43236;47.208;7.518;2023-02-28T05:51:01;12.48;;;6.65;;
38940;SDS011;43236;47.208;7.518;2023-02-28T05:53:48;13.65;;;6.35;;
38940;SDS011;43236;47.208;7.518;2023-02-28T05:56:35;13.40;;;6.07;;
38940;SDS011;43236;47.208;7.518;2023-02-28T05:59:25;10.50;;;5.82;;
38940;SDS011;43236;47.208;7.518;2023-02-28T06:02:13;14.30;;;6.55;;
38940;SDS011;43236;47.208;7.518;2023-02-28T06:05:01;15.18;;;6.05;;
38940;SDS011;43236;47.208;7.518;2023-02-28T06:07:48;10.57;;;6.35;;
38940;SDS011;43236;47.208;7.518;2023-02-28T06:10:35;12.70;;;5.75;;
38940;SDS011;43236;47.208;7.518;2023-02-28T06:13:23;12.70;;;5.80;;
38940;SDS011;43236;47.208;7.518;2023-02-28T06:16:11;11.40;;;5.97;;
38940;SDS011;43236;47.208;7.518;2023-02-28T06:18:59;13.20;;;6.03;;
38940;SDS011;43236;47.208;7.518;2023-02-28T06:21:48;10.65;;;6.28;;
38940;SDS011;43236;47.208;7.518;2023-02-28T06:24:37;10.18;;;5.53;;
38940;SDS011;43236;47.208;7.518;2023-02-28T06:27:24;12.98;;;6.15;;
38940;SDS011;43236;47.208;7.518;2023-02-28T06:30:12;12.10;;;5.60;;
38940;SDS011;43236;47.208;7.518;2023-02-28T06:33:01;11.63;;;6.22;;
38940;SDS011;43236;47.208;7.518;2023-02-28T06:35:49;12.60;;;5.90;;
38940;SDS011;43236;47.208;7.518;2023-02-28T06:38:37;9.27;;;5.53;;
38940;SDS011;43236;47.208;7.518;2023-02-28T06:41:25;13.82;;;6.38;;
38940;SDS011;43236;47.208;7.518;2023-02-28T06:44:13;12.68;;;6.45;;
38940;SDS011;43236;47.208;7.518;2023-02-28T06:47:02;11.27;;;5.40;;
38940;SDS011;43236;47.208;7.518;2023-02-28T06:49:51;13.50;;;6.60;;
38940;SDS011;43236;47.208;7.518;2023-02-28T06:52:38;11.48;;;6.22;;
38940;SDS011;43236;47.208;7.518;2023-02-28T06:55:25;10.70;;;6.07;;
38940;SDS011;43236;47.208;7.518;2023-02-28T06:58:12;10.88;;;6.15;;
38940;SDS011;43236;47.208;7.518;2023-02-28T07:01:01;11.38;;;6.07;;
38940;SDS011;43236;47.208;7.518;2023-02-28T07:03:48;9.23;;;5.65;;
38940;SDS011;43236;47.208;7.518;2023-02-28T07:06:38;9.77;;;5.55;;
38940;SDS011;43236;47.208;7.518;2023-02-28T07:09:25;16.25;;;6.40;;
38940;SDS011;43236;47.208;7.518;2023-02-28T07:12:15;10.00;;;5.47;;
38940;SDS011;43236;47.208;7.518;2023-02-28T07:15:02;8.95;;;5.75;;
38940;SDS011;43236;47.208;7.518;2023-02-28T07:17:50;13.82;;;5.95;;
38940;SDS011;43236;47.208;7.518;2023-02-28T07:20:37;9.13;;;5.32;;
38940;SDS011;43236;47.208;7.518;2023-02-28T07:23:25;11.20;;;5.50;;
38940;SDS011;43236;47.208;7.518;2023-02-28T07:26:13;10.88;;;5.40;;
38940;SDS011;43236;47.208;7.518;2023-02-28T07:29:03;11.30;;;6.35;;
38940;SDS011;43236;47.208;7.518;2023-02-28T07:31:50;9.85;;;5.78;;
38940;SDS011;43236;47.208;7.518;2023-02-28T07:34:38;10.52;;;5.63;;
38940;SDS011;43236;47.208;7.518;2023-02-28T07:37:25;8.93;;;5.00;;
38940;SDS011;43236;47.208;7.518;2023-02-28T07:40:14;10.18;;;5.13;;
38940;SDS011;43236;47.208;7.518;2023-02-28T07:43:03;13.98;;;5.25;;
38940;SDS011;43236;47.208;7.518;2023-02-28T07:45:50;11.05;;;5.40;;
38940;SDS011;43236;47.208;7.518;2023-02-28T07:48:37;11.02;;;5.30;;
38940;SDS011;43236;47.208;7.518;2023-02-28T07:51:24;12.18;;;5.22;;
38940;SDS011;43236;47.208;7.518;2023-02-28T07:54:11;12.63;;;5.57;;
38940;SDS011;43236;47.208;7.518;2023-02-28T07:57:00;8.93;;;5.13;;
38940;SDS011;43236;47.208;7.518;2023-02-28T07:59:47;12.40;;;5.05;;
38940;SDS011;43236;47.208;7.518;2023-02-28T08:02:34;9.90;;;5.78;;
38940;SDS011;43236;47.208;7.518;2023-02-28T08:05:21;9.77;;;5.30;;
38940;SDS011;43236;47.208;7.518;2023-02-28T08:08:09;9.40;;;5.55;;
38940;SDS011;43236;47.208;7.518;2023-02-28T08:10:57;15.88;;;6.85;;
38940;SDS011;43236;47.208;7.518;2023-02-28T08:13:46;13.85;;;6.65;;
38940;SDS011;43236;47.208;7.518;2023-02-28T08:16:33;11.95;;;5.70;;
38940;SDS011;43236;47.208;7.518;2023-02-28T08:19:20;10.98;;;5.65;;
38940;SDS011;43236;47.208;7.518;2023-02-28T08:22:07;10.40;;;5.97;;
38940;SDS011;43236;47.208;7.518;2023-02-28T08:24:54;8.70;;;5.47;;
38940;SDS011;43236;47.208;7.518;2023-02-28T08:27:41;14.68;;;5.60;;
38940;SDS011;43236;47.208;7.518;2023-02-28T08:30:30;9.15;;;5.65;;
38940;SDS011;43236;47.208;7.518;2023-02-28T08:33:17;11.45;;;5.55;;
38940;SDS011;43236;47.208;7.518;2023-02-28T08:36:05;10.07;;;5.85;;
38940;SDS011;43236;47.208;7.518;2023-02-28T08:38:53;10.32;;;5.35;;
38940;SDS011;43236;47.208;7.518;2023-02-28T08:41:41;10.82;;;5.72;;
38940;SDS011;43236;47.208;7.518;2023-02-28T08:44:29;13.50;;;5.88;;
38940;SDS011;43236;47.208;7.518;2023-02-28T08:47:18;11.05;;;5.57;;
38940;SDS011;43236;47.208;7.518;2023-02-28T08:50:06;11.82;;;5.50;;
38940;SDS011;43236;47.208;7.518;2023-02-28T08:52:54;9.23;;;5.20;;
38940;SDS011;43236;47.208;7.518;2023-02-28T08:55:41;12.48;;;5.72;;
38940;SDS011;43236;47.208;7.518;2023-02-28T08:58:28;11.13;;;6.05;;
38940;SDS011;43236;47.208;7.518;2023-02-28T09:01:16;10.35;;;5.72;;
38940;SDS011;43236;47.208;7.518;2023-02-28T09:04:07;10.65;;;6.10;;
38940;SDS011;43236;47.208;7.518;2023-02-28T09:06:56;14.52;;;5.78;;
38940;SDS011;43236;47.208;7.518;2023-02-28T09:09:43;12.57;;;6.07;;
38940;SDS011;43236;47.208;7.518;2023-02-28T09:12:39;11.48;;;6.32;;
38940;SDS011;43236;47.208;7.518;2023-02-28T09:15:26;12.05;;;5.78;;
38940;SDS011;43236;47.208;7.518;2023-02-28T09:18:14;11.65;;;6.13;;
38940;SDS011;43236;47.208;7.518;2023-02-28T09:21:04;15.18;;;6.30;;
38940;SDS011;43236;47.208;7.518;2023-02-28T09:23:52;9.30;;;5.63;;
38940;SDS011;43236;47.208;7.518;2023-02-28T09:26:39;10.05;;;6.18;;
38940;SDS011;43236;47.208;7.518;2023-02-28T09:29:26;11.50;;;5.32;;
38940;SDS011;43236;47.208;7.518;2023-02-28T09:32:13;11.18;;;5.78;;
38940;SDS011;43236;47.208;7.518;2023-02-28T09:35:01;13.13;;;5.82;;
38940;SDS011;43236;47.208;7.518;2023-02-28T09:37:49;12.55;;;6.05;;
38940;SDS011;43236;47.208;7.518;2023-02-28T09:40:39;9.95;;;5.43;;
38940;SDS011;43236;47.208;7.518;2023-02-28T09:43:34;10.75;;;6.07;;
38940;SDS011;43236;47.208;7.518;2023-02-28T09:46:27;11.40;;;5.88;;
38940;SDS011;43236;47.208;7.518;2023-02-28T09:49:17;10.73;;;5.50;;
38940;SDS011;43236;47.208;7.518;2023-02-28T09:52:09;14.60;;;5.68;;
38940;SDS011;43236;47.208;7.518;2023-02-28T09:55:04;11.10;;;5.78;;
38940;SDS011;43236;47.208;7.518;2023-02-28T09:58:08;10.15;;;5.75;;
38940;SDS011;43236;47.208;7.518;2023-02-28T10:01:06;12.82;;;5.72;;
38940;SDS011;43236;47.208;7.518;2023-02-28T10:04:08;11.77;;;5.97;;
38940;SDS011;43236;47.208;7.518;2023-02-28T10:07:06;11.90;;;6.18;;
38940;SDS011;43236;47.208;7.518;2023-02-28T10:10:07;9.70;;;5.88;;
38940;SDS011;43236;47.208;7.518;2023-02-28T10:13:06;12.80;;;5.95;;
38940;SDS011;43236;47.208;7.518;2023-02-28T10:16:03;10.95;;;6.07;;
38940;SDS011;43236;47.208;7.518;2023-02-28T10:18:54;13.45;;;6.43;;
38940;SDS011;43236;47.208;7.518;2023-02-28T10:21:46;11.40;;;6.05;;
38940;SDS011;43236;47.208;7.518;2023-02-28T10:24:41;15.63;;;6.25;;
38940;SDS011;43236;47.208;7.518;2023-02-28T10:27:31;11.07;;;5.75;;
38940;SDS011;43236;47.208;7.518;2023-02-28T10:30:19;9.93;;;6.05;;
38940;SDS011;43236;47.208;7.518;2023-02-28T10:33:08;11.32;;;5.88;;
38940;SDS011;43236;47.208;7.518;2023-02-28T10:36:04;12.85;;;7.03;;
38940;SDS011;43236;47.208;7.518;2023-02-28T10:38:52;11.75;;;6.72;;
38940;SDS011;43236;47.208;7.518;2023-02-28T10:41:42;10.70;;;6.30;;
38940;SDS011;43236;47.208;7.518;2023-02-28T10:44:31;11.90;;;6.95;;
38940;SDS011;43236;47.208;7.518;2023-02-28T10:47:18;12.13;;;6.50;;
38940;SDS011;43236;47.208;7.518;2023-02-28T10:50:08;11.45;;;6.32;;
38940;SDS011;43236;47.208;7.518;2023-02-28T10:56:22;11.93;;;6.57;;
38940;SDS011;43236;47.208;7.518;2023-02-28T11:02:29;10.48;;;6.25;;
38940;SDS011;43236;47.208;7.518;2023-02-28T11:05:25;11.20;;;6.30;;
38940;SDS011;43236;47.208;7.518;2023-02-28T11:08:15;11.48;;;6.43;;
38940;SDS011;43236;47.208;7.518;2023-02-28T11:11:04;13.70;;;6.47;;
38940;SDS011;43236;47.208;7.518;2023-02-28T11:13:53;10.90;;;5.93;;
38940;SDS011;43236;47.208;7.518;2023-02-28T11:16:43;13.75;;;7.18;;
38940;SDS011;43236;47.208;7.518;2023-02-28T11:19:32;11.38;;;6.65;;
38940;SDS011;43236;47.208;7.518;2023-02-28T11:22:24;12.30;;;6.65;;
38940;SDS011;43236;47.208;7.518;2023-02-28T11:25:16;13.98;;;6.57;;
38940;SDS011;43236;47.208;7.518;2023-02-28T11:28:22;16.45;;;6.85;;
38940;SDS011;43236;47.208;7.518;2023-02-28T11:31:16;11.57;;;6.47;;
38940;SDS011;43236;47.208;7.518;2023-02-28T11:34:24;13.57;;;7.00;;
38940;SDS011;43236;47.208;7.518;2023-02-28T11:37:13;11.45;;;6.75;;
38940;SDS011;43236;47.208;7.518;2023-02-28T11:40:04;14.98;;;7.15;;
38940;SDS011;43236;47.208;7.518;2023-02-28T11:43:05;12.45;;;6.80;;
38940;SDS011;43236;47.208;7.518;2023-02-28T11:46:02;11.55;;;6.78;;
38940;SDS011;43236;47.208;7.518;2023-02-28T11:48:58;13.52;;;6.57;;
38940;SDS011;43236;47.208;7.518;2023-02-28T11:51:56;12.32;;;7.07;;
38940;SDS011;43236;47.208;7.518;2023-02-28T11:54:54;12.27;;;6.97;;
38940;SDS011;43236;47.208;7.518;2023-02-28T12:01:21;14.45;;;7.60;;
38940;SDS011;43236;47.208;7.518;2023-02-28T12:04:23;13.60;;;7.20;;
38940;SDS011;43236;47.208;7.518;2023-02-28T12:07:16;10.98;;;6.93;;
38940;SDS011;43236;47.208;7.518;2023-02-28T12:10:16;11.00;;;7.05;;
38940;SDS011;43236;47.208;7.518;2023-02-28T12:13:12;13.90;;;7.68;;
38940;SDS011;43236;47.208;7.518;2023-02-28T12:19:32;15.48;;;7.65;;
38940;SDS011;43236;47.208;7.518;2023-02-28T12:22:29;13.15;;;7.63;;
38940;SDS011;43236;47.208;7.518;2023-02-28T12:25:21;11.77;;;6.93;;
38940;SDS011;43236;47.208;7.518;2023-02-28T12:28:16;13.38;;;7.03;;
38940;SDS011;43236;47.208;7.518;2023-02-28T12:31:09;17.98;;;8.68;;
38940;SDS011;43236;47.208;7.518;2023-02-28T12:34:03;15.02;;;8.82;;
38940;SDS011;43236;47.208;7.518;2023-02-28T12:36:52;14.88;;;8.00;;
38940;SDS011;43236;47.208;7.518;2023-02-28T12:39:44;14.98;;;7.72;;
38940;SDS011;43236;47.208;7.518;2023-02-28T12:42:36;12.35;;;7.07;;
38940;SDS011;43236;47.208;7.518;2023-02-28T12:45:31;12.98;;;7.82;;
38940;SDS011;43236;47.208;7.518;2023-02-28T12:48:28;12.65;;;6.93;;
38940;SDS011;43236;47.208;7.518;2023-02-28T12:51:18;12.20;;;7.22;;
38940;SDS011;43236;47.208;7.518;2023-02-28T12:54:09;12.13;;;7.38;;
38940;SDS011;43236;47.208;7.518;2023-02-28T12:57:06;13.52;;;7.03;;
38940;SDS011;43236;47.208;7.518;2023-02-28T13:02:56;13.40;;;6.90;;
38940;SDS011;43236;47.208;7.518;2023-02-28T13:09:31;11.60;;;6.65;;
38940;SDS011;43236;47.208;7.518;2023-02-28T13:12:20;12.90;;;7.47;;
38940;SDS011;43236;47.208;7.518;2023-02-28T13:15:08;14.88;;;7.50;;
38940;SDS011;43236;47.208;7.518;2023-02-28T13:18:20;15.32;;;7.18;;
38940;SDS011;43236;47.208;7.518;2023-02-28T13:21:22;16.58;;;7.75;;
38940;SDS011;43236;47.208;7.518;2023-02-28T13:24:11;13.65;;;7.50;;
38940;SDS011;43236;47.208;7.518;2023-02-28T13:27:32;12.18;;;7.22;;
38940;SDS011;43236;47.208;7.518;2023-02-28T13:34:11;13.57;;;7.50;;
38940;SDS011;43236;47.208;7.518;2023-02-28T13:40:31;13.32;;;7.30;;
38940;SDS011;43236;47.208;7.518;2023-02-28T13:43:23;12.73;;;7.68;;
38940;SDS011;43236;47.208;7.518;2023-02-28T13:50:19;13.98;;;7.60;;
38940;SDS011;43236;47.208;7.518;2023-02-28T13:53:30;14.93;;;8.35;;
38940;SDS011;43236;47.208;7.518;2023-02-28T13:56:47;16.15;;;8.18;;
38940;SDS011;43236;47.208;7.518;2023-02-28T13:59:43;14.23;;;7.47;;
38940;SDS011;43236;47.208;7.518;2023-02-28T14:02:40;12.90;;;7.60;;
38940;SDS011;43236;47.208;7.518;2023-02-28T14:06:10;14.43;;;7.97;;
38940;SDS011;43236;47.208;7.518;2023-02-28T14:09:06;14.40;;;7.70;;
38940;SDS011;43236;47.208;7.518;2023-02-28T14:15:44;12.30;;;7.32;;
38940;SDS011;43236;47.208;7.518;2023-02-28T14:18:34;14.70;;;7.90;;
38940;SDS011;43236;47.208;7.518;2023-02-28T14:21:23;12.02;;;7.40;;
38940;SDS011;43236;47.208;7.518;2023-02-28T14:27:31;13.48;;;6.85;;
38940;SDS011;43236;47.208;7.518;2023-02-28T14:33:57;12.73;;;7.63;;
38940;SDS011;43236;47.208;7.518;2023-02-28T14:36:50;13.57;;;7.68;;
38940;SDS011;43236;47.208;7.518;2023-02-28T14:39:40;11.75;;;7.32;;
38940;SDS011;43236;47.208;7.518;2023-02-28T14:42:29;14.60;;;8.20;;
38940;SDS011;43236;47.208;7.518;2023-02-28T14:45:19;15.38;;;7.78;;
38940;SDS011;43236;47.208;7.518;2023-02-28T14:48:09;18.40;;;9.02;;
38940;SDS011;43236;47.208;7.518;2023-02-28T14:50:57;15.45;;;7.57;;
38940;SDS011;43236;47.208;7.518;2023-02-28T14:53:45;16.55;;;8.73;;
38940;SDS011;43236;47.208;7.518;2023-02-28T14:56:37;13.27;;;7.80;;
38940;SDS011;43236;47.208;7.518;2023-02-28T14:59:27;20.55;;;7.38;;
38940;SDS011;43236;47.208;7.518;2023-02-28T15:02:20;15.07;;;6.55;;
38940;SDS011;43236;47.208;7.518;2023-02-28T15:05:19;12.90;;;7.85;;
38940;SDS011;43236;47.208;7.518;2023-02-28T15:08:11;19.17;;;8.15;;
38940;SDS011;43236;47.208;7.518;2023-02-28T15:11:00;15.40;;;7.75;;
38940;SDS011;43236;47.208;7.518;2023-02-28T15:13:50;12.80;;;7.40;;
38940;SDS011;43236;47.208;7.518;2023-02-28T15:16:41;17.48;;;8.05;;
38940;SDS011;43236;47.208;7.518;2023-02-28T15:19:30;14.40;;;7.95;;
38940;SDS011;43236;47.208;7.518;2023-02-28T15:22:22;14.73;;;8.02;;
38940;SDS011;43236;47.208;7.518;2023-02-28T15:25:17;15.18;;;8.43;;
38940;SDS011;43236;47.208;7.518;2023-02-28T15:28:09;16.48;;;7.57;;
38940;SDS011;43236;47.208;7.518;2023-02-28T15:31:00;18.38;;;8.23;;
38940;SDS011;43236;47.208;7.518;2023-02-28T15:33:52;13.02;;;7.75;;
38940;SDS011;43236;47.208;7.518;2023-02-28T15:36:40;15.88;;;8.82;;
38940;SDS011;43236;47.208;7.518;2023-02-28T15:39:29;16.27;;;8.10;;
38940;SDS011;43236;47.208;7.518;2023-02-28T15:42:18;19.98;;;8.25;;
38940;SDS011;43236;47.208;7.518;2023-02-28T15:48:26;15.65;;;8.52;;
38940;SDS011;43236;47.208;7.518;2023-02-28T15:51:16;15.73;;;9.15;;
38940;SDS011;43236;47.208;7.518;2023-02-28T15:54:05;14.70;;;8.35;;
38940;SDS011;43236;47.208;7.518;2023-02-28T15:56:56;14.75;;;8.15;;
38940;SDS011;43236;47.208;7.518;2023-02-28T15:59:49;15.13;;;8.18;;
38940;SDS011;43236;47.208;7.518;2023-02-28T16:02:39;12.68;;;7.65;;
38940;SDS011;43236;47.208;7.518;2023-02-28T16:05:26;16.98;;;9.00;;
38940;SDS011;43236;47.208;7.518;2023-02-28T16:08:17;16.83;;;9.18;;
38940;SDS011;43236;47.208;7.518;2023-02-28T16:11:04;14.18;;;8.23;;
38940;SDS011;43236;47.208;7.518;2023-02-28T16:13:52;16.80;;;8.95;;
38940;SDS011;43236;47.208;7.518;2023-02-28T16:16:42;14.68;;;8.90;;
38940;SDS011;43236;47.208;7.518;2023-02-28T16:19:30;16.75;;;9.23;;
38940;SDS011;43236;47.208;7.518;2023-02-28T16:22:18;17.35;;;8.95;;
38940;SDS011;43236;47.208;7.518;2023-02-28T16:25:05;15.43;;;8.55;;
38940;SDS011;43236;47.208;7.518;2023-02-28T16:27:53;17.85;;;8.52;;
38940;SDS011;43236;47.208;7.518;2023-02-28T16:30:44;19.40;;;9.80;;
38940;SDS011;43236;47.208;7.518;2023-02-28T16:33:31;17.13;;;8.82;;
38940;SDS011;43236;47.208;7.518;2023-02-28T16:36:20;19.27;;;9.88;;
38940;SDS011;43236;47.208;7.518;2023-02-28T16:39:10;21.30;;;9.90;;
38940;SDS011;43236;47.208;7.518;2023-02-28T16:41:57;20.27;;;10.27;;
38940;SDS011;43236;47.208;7.518;2023-02-28T16:44:44;20.77;;;10.18;;
38940;SDS011;43236;47.208;7.518;2023-02-28T16:47:34;18.80;;;9.65;;
38940;SDS011;43236;47.208;7.518;2023-02-28T16:50:21;18.88;;;9.77;;
38940;SDS011;43236;47.208;7.518;2023-02-28T16:53:10;17.00;;;9.85;;
38940;SDS011;43236;47.208;7.518;2023-02-28T16:55:57;18.60;;;10.10;;
38940;SDS011;43236;47.208;7.518;2023-02-28T16:58:47;18.48;;;9.32;;
38940;SDS011;43236;47.208;7.518;2023-02-28T17:01:35;18.90;;;9.80;;
38940;SDS011;43236;47.208;7.518;2023-02-28T17:04:23;17.48;;;9.52;;
38940;SDS011;43236;47.208;7.518;2023-02-28T17:07:11;21.83;;;9.95;;
38940;SDS011;43236;47.208;7.518;2023-02-28T17:10:01;20.98;;;9.40;;
38940;SDS011;43236;47.208;7.518;2023-02-28T17:12:53;15.73;;;9.18;;
38940;SDS011;43236;47.208;7.518;2023-02-28T17:15:40;18.38;;;9.57;;
38940;SDS011;43236;47.208;7.518;2023-02-28T17:18:29;18.25;;;8.70;;
38940;SDS011;43236;47.208;7.518;2023-02-28T17:21:20;18.13;;;10.40;;
38940;SDS011;43236;47.208;7.518;2023-02-28T17:24:07;19.48;;;9.52;;
38940;SDS011;43236;47.208;7.518;2023-02-28T17:26:57;16.55;;;9.65;;
38940;SDS011;43236;47.208;7.518;2023-02-28T17:29:45;17.90;;;9.57;;
38940;SDS011;43236;47.208;7.518;2023-02-28T17:32:32;17.95;;;10.10;;
38940;SDS011;43236;47.208;7.518;2023-02-28T17:35:19;20.05;;;10.85;;
38940;SDS011;43236;47.208;7.518;2023-02-28T17:38:09;18.70;;;9.75;;
38940;SDS011;43236;47.208;7.518;2023-02-28T17:41:02;16.77;;;9.52;;
38940;SDS011;43236;47.208;7.518;2023-02-28T17:43:49;20.83;;;10.88;;